createdAt,value
2023-09-06T00:03:05.421Z,23.58
2023-09-06T00:08:09.410Z,23.57
2023-09-06T00:13:11.512Z,23.57
2023-09-06T00:18:12.829Z,23.59
2023-09-06T00:23:15.166Z,23.58
2023-09-06T00:28:16.504Z,23.56
2023-09-06T00:33:17.962Z,23.48
2023-09-06T00:38:19.445Z,23.48
2023-09-06T00:43:20.927Z,23.42
2023-09-06T00:48:23.117Z,23.48
2023-09-06T00:53:25.191Z,23.52
2023-09-06T00:58:27.892Z,23.52
2023-09-06T01:03:29.607Z,23.50
2023-09-06T01:08:32.963Z,23.52
2023-09-06T01:13:34.263Z,23.50
2023-09-06T01:18:35.611Z,23.52
2023-09-06T01:23:40.223Z,23.51
2023-09-06T01:28:41.524Z,23.52
2023-09-06T01:33:42.864Z,23.47
2023-09-06T01:38:44.166Z,23.43
2023-09-06T01:43:45.540Z,23.43
2023-09-06T01:48:48.056Z,23.43
2023-09-06T01:53:49.362Z,23.42
2023-09-06T01:58:50.651Z,23.46
2023-09-06T02:03:52.229Z,23.45
2023-09-06T02:08:53.964Z,23.46
2023-09-06T02:13:55.349Z,23.41
2023-09-06T02:18:56.769Z,23.44
2023-09-06T02:23:58.138Z,23.45
2023-09-06T02:28:59.467Z,23.41
2023-09-06T02:34:00.857Z,23.40
2023-09-06T02:39:02.800Z,23.42
2023-09-06T02:44:04.120Z,23.43
2023-09-06T02:49:12.441Z,23.41
2023-09-06T02:54:18.451Z,23.42
2023-09-06T02:59:20.553Z,23.40
2023-09-06T03:04:24.307Z,23.38
2023-09-06T03:09:29.978Z,23.30
2023-09-06T03:14:31.386Z,23.30
2023-09-06T03:19:34.953Z,23.30
2023-09-06T03:24:41.529Z,23.27
2023-09-06T03:29:43.125Z,23.29
2023-09-06T03:34:46.385Z,23.28
2023-09-06T03:39:48.780Z,23.28
2023-09-06T03:44:50.850Z,23.25
2023-09-06T03:49:53.154Z,23.31
2023-09-06T03:54:56.277Z,23.34
2023-09-06T03:59:59.859Z,23.38
2023-09-06T04:05:01.201Z,23.40
2023-09-06T04:10:03.894Z,23.42
2023-09-06T04:15:08.078Z,23.45
2023-09-06T04:20:20.170Z,23.43
2023-09-06T04:25:23.796Z,23.46
2023-09-06T04:30:25.541Z,23.51
2023-09-06T04:35:28.775Z,23.49
2023-09-06T04:40:33.145Z,23.50
2023-09-06T04:45:34.494Z,23.50
2023-09-06T04:50:39.564Z,23.50
2023-09-06T04:55:41.193Z,23.42
2023-09-06T05:00:44.526Z,23.43
2023-09-06T05:05:49.009Z,23.39
2023-09-06T05:10:50.871Z,23.48
2023-09-06T05:15:52.194Z,23.47
2023-09-06T05:20:53.594Z,23.46
2023-09-06T05:25:55.099Z,23.47
2023-09-06T05:30:56.412Z,23.47
2023-09-06T05:35:57.965Z,23.53
2023-09-06T05:40:59.357Z,23.51
2023-09-06T05:46:00.771Z,23.55
2023-09-06T05:51:02.263Z,23.56
2023-09-06T05:56:03.652Z,23.60
2023-09-06T06:01:05.297Z,23.59
2023-09-06T06:06:11.581Z,23.58
2023-09-06T06:11:12.962Z,23.54
2023-09-06T06:16:15.889Z,23.62
2023-09-06T06:21:18.724Z,23.64
2023-09-06T06:26:21.232Z,23.61
2023-09-06T06:31:22.588Z,23.65
2023-09-06T06:36:24.202Z,23.72
2023-09-06T06:41:26.764Z,23.77
2023-09-06T06:46:28.784Z,23.79
2023-09-06T06:51:36.132Z,23.79
2023-09-06T06:56:39.751Z,23.78
2023-09-06T07:01:41.087Z,23.76
2023-09-06T07:06:42.408Z,23.70
2023-09-06T07:11:44.173Z,23.65
2023-09-06T07:16:45.684Z,23.60
2023-09-06T07:21:47.912Z,23.55
2023-09-06T07:26:49.725Z,23.48
2023-09-06T07:31:51.066Z,23.42
2023-09-06T07:36:52.364Z,23.49
2023-09-06T07:41:54.741Z,23.47
2023-09-06T07:46:56.380Z,23.49
2023-09-06T07:51:58.346Z,23.52
2023-09-06T07:56:59.672Z,23.51
2023-09-06T08:02:01.027Z,23.54
2023-09-06T08:07:02.534Z,23.58
2023-09-06T08:12:04.098Z,23.61
2023-09-06T08:17:05.586Z,23.67
2023-09-06T08:22:07.325Z,23.68
2023-09-06T08:27:08.664Z,23.70
2023-09-06T08:32:10.256Z,23.72
2023-09-06T08:37:11.856Z,23.78
2023-09-06T08:42:13.199Z,23.83
2023-09-06T08:47:14.536Z,23.84
2023-09-06T08:52:15.868Z,23.88
2023-09-06T08:57:20.378Z,23.89
2023-09-06T09:02:21.706Z,23.94
2023-09-06T09:07:23.965Z,23.95
2023-09-06T09:12:26.052Z,24.00
2023-09-06T09:17:27.924Z,24.03
2023-09-06T09:22:29.896Z,24.07
2023-09-06T09:27:34.797Z,24.09
2023-09-06T09:32:36.172Z,24.08
2023-09-06T09:37:39.906Z,24.10
2023-09-06T09:42:51.703Z,24.14
2023-09-06T09:47:54.512Z,24.20
2023-09-06T09:52:57.205Z,24.35
2023-09-06T09:58:06.686Z,24.35
2023-09-06T10:03:09.863Z,24.33
2023-09-06T10:08:11.476Z,24.38
2023-09-06T10:13:13.877Z,24.39
2023-09-06T10:18:15.308Z,24.41
2023-09-06T10:23:18.177Z,24.40
2023-09-06T10:28:25.565Z,24.39
2023-09-06T10:33:43.276Z,24.40
2023-09-06T10:38:53.748Z,24.44
2023-09-06T10:44:08.294Z,24.47
2023-09-06T10:49:15.810Z,24.50
2023-09-06T10:54:18.811Z,24.55
2023-09-06T10:59:23.074Z,24.58
2023-09-06T11:04:27.601Z,24.62
2023-09-06T11:09:31.026Z,24.68
2023-09-06T11:14:32.334Z,24.65
2023-09-06T11:19:36.646Z,24.72
2023-09-06T11:24:38.179Z,24.68
2023-09-06T11:29:40.383Z,24.74
2023-09-06T11:34:45.295Z,24.74
2023-09-06T11:39:46.743Z,24.74
2023-09-06T11:44:56.119Z,24.77
2023-09-06T11:49:59.021Z,24.76
2023-09-06T11:55:06.254Z,24.77
2023-09-06T12:00:09.097Z,24.79
2023-09-06T12:05:12.463Z,24.83
2023-09-06T12:10:17.480Z,24.88
2023-09-06T12:15:21.014Z,24.88
2023-09-06T12:20:24.206Z,24.89
2023-09-06T12:25:25.601Z,24.91
2023-09-06T12:30:26.936Z,25.01
2023-09-06T12:35:28.257Z,25.05
2023-09-06T12:40:30.393Z,25.12
2023-09-06T12:45:31.904Z,25.15
2023-09-06T12:50:33.289Z,25.18
2023-09-06T12:55:35.439Z,25.20
2023-09-06T13:00:36.732Z,25.16
2023-09-06T13:05:40.726Z,25.12
2023-09-06T13:10:42.123Z,25.06
2023-09-06T13:15:43.470Z,25.01
2023-09-06T13:20:44.951Z,24.98
2023-09-06T13:25:46.270Z,24.94
2023-09-06T13:30:47.751Z,24.92
2023-09-06T13:35:50.379Z,24.88
2023-09-06T13:40:51.722Z,24.86
2023-09-06T13:45:53.156Z,24.87
2023-09-06T13:50:54.530Z,24.86
2023-09-06T13:55:56.722Z,24.84
2023-09-06T14:00:59.557Z,24.83
2023-09-06T14:06:00.923Z,24.79
2023-09-06T14:11:03.933Z,24.80
2023-09-06T14:16:06.636Z,24.80
2023-09-06T14:21:07.987Z,24.78
2023-09-06T14:26:09.516Z,24.78
2023-09-06T14:31:13.936Z,24.77
2023-09-06T14:36:15.279Z,24.77
2023-09-06T14:41:16.651Z,24.76
2023-09-06T14:46:18.884Z,24.75
2023-09-06T14:51:20.265Z,24.74
2023-09-06T14:56:21.719Z,24.74
2023-09-06T15:01:23.294Z,24.72
2023-09-06T15:06:24.630Z,24.73
2023-09-06T15:11:26.470Z,24.72
2023-09-06T15:16:27.799Z,24.72
2023-09-06T15:21:29.187Z,24.72
2023-09-06T15:26:30.492Z,24.70
2023-09-06T15:31:32.098Z,24.71
2023-09-06T15:36:33.601Z,24.72
2023-09-06T15:41:34.922Z,24.70
2023-09-06T15:46:36.230Z,24.71
2023-09-06T15:51:37.738Z,24.72
2023-09-06T15:56:39.168Z,24.72
2023-09-06T16:01:40.583Z,24.71
2023-09-06T16:06:42.585Z,24.73
2023-09-06T16:11:43.894Z,24.73
2023-09-06T16:16:45.223Z,24.74
2023-09-06T16:21:46.571Z,24.74
2023-09-06T16:26:48.104Z,24.71
2023-09-06T16:31:49.464Z,24.72
2023-09-06T16:36:51.118Z,24.74
2023-09-06T16:41:52.421Z,24.74
2023-09-06T16:46:53.872Z,24.74
2023-09-06T16:51:55.381Z,24.73
2023-09-06T16:56:57.481Z,24.72
2023-09-06T17:01:59.181Z,24.71
2023-09-06T17:07:00.587Z,24.71
2023-09-06T17:12:01.876Z,24.69
2023-09-06T17:17:04.428Z,24.68
2023-09-06T17:22:05.992Z,24.69
2023-09-06T17:27:09.483Z,24.70
2023-09-06T17:32:11.125Z,24.69
2023-09-06T17:37:12.531Z,24.68
2023-09-06T17:42:13.817Z,24.66
2023-09-06T17:47:15.110Z,24.66
2023-09-06T17:52:17.399Z,24.66
2023-09-06T17:57:18.709Z,24.65
2023-09-06T18:02:20.831Z,24.66
2023-09-06T18:07:22.341Z,24.64
2023-09-06T18:12:25.762Z,24.64
2023-09-06T18:17:27.555Z,24.63
2023-09-06T18:22:28.957Z,24.62
2023-09-06T18:27:30.389Z,24.59
2023-09-06T18:32:32.568Z,24.57
2023-09-06T18:37:33.941Z,24.57
2023-09-06T18:42:35.342Z,24.55
2023-09-06T18:47:36.799Z,24.54
2023-09-06T18:52:38.541Z,24.54
2023-09-06T18:57:48.386Z,24.54
2023-09-06T19:03:01.710Z,24.50
2023-09-06T19:08:03.165Z,24.50
2023-09-06T19:13:04.885Z,24.46
2023-09-06T19:18:07.246Z,24.44
2023-09-06T19:23:17.340Z,24.39
2023-09-06T19:28:19.902Z,24.38
2023-09-06T19:33:21.305Z,24.34
2023-09-06T19:38:25.367Z,24.36
2023-09-06T19:43:26.732Z,24.29
2023-09-06T19:48:28.106Z,24.30
2023-09-06T19:53:29.465Z,24.29
2023-09-06T19:58:31.112Z,24.27
2023-09-06T20:03:32.733Z,24.24
2023-09-06T20:08:34.192Z,24.24
2023-09-06T20:13:35.506Z,24.23
2023-09-06T20:18:36.814Z,24.19
2023-09-06T20:23:39.022Z,24.18
2023-09-06T20:28:40.467Z,24.13
2023-09-06T20:33:41.883Z,24.11
2023-09-06T20:38:43.223Z,24.13
2023-09-06T20:43:44.596Z,24.09
2023-09-06T20:48:47.081Z,24.07
2023-09-06T20:53:48.702Z,24.03
2023-09-06T20:58:50.030Z,24.02
2023-09-06T21:03:51.430Z,24.01
2023-09-06T21:08:53.317Z,23.98
2023-09-06T21:13:54.766Z,23.95
2023-09-06T21:18:56.202Z,23.93
2023-09-06T21:23:57.535Z,23.90
2023-09-06T21:28:58.928Z,23.76
2023-09-06T21:34:00.363Z,23.79
2023-09-06T21:39:01.820Z,23.76
2023-09-06T21:44:03.272Z,23.66
2023-09-06T21:49:04.567Z,23.59
2023-09-06T21:54:05.878Z,23.62
2023-09-06T21:59:07.465Z,23.57
2023-09-06T22:04:08.887Z,23.54
2023-09-06T22:09:10.568Z,23.53
2023-09-06T22:14:11.913Z,23.56
2023-09-06T22:19:13.826Z,23.58
2023-09-06T22:24:15.152Z,23.55
2023-09-06T22:29:16.491Z,23.50
2023-09-06T22:34:19.608Z,23.48
2023-09-06T22:39:20.940Z,23.49
2023-09-06T22:44:22.350Z,23.50
2023-09-06T22:49:23.688Z,23.44
2023-09-06T22:54:25.105Z,23.44
2023-09-06T22:59:26.738Z,23.46
2023-09-06T23:04:28.582Z,23.48
2023-09-06T23:09:30.683Z,23.45
2023-09-06T23:14:37.751Z,23.43
2023-09-06T23:19:45.326Z,23.39
2023-09-06T23:24:50.258Z,23.42
2023-09-06T23:29:59.546Z,23.35
2023-09-06T23:35:01.006Z,23.38
2023-09-06T23:40:12.377Z,23.37
2023-09-06T23:45:13.742Z,23.36
2023-09-06T23:50:15.046Z,23.33
2023-09-06T23:55:16.440Z,23.30
